sensor_id;sensor_type;location;lat;lon;timestamp;P1;durP1;ratioP1;P2;durP2;ratioP2
61291;SDS011;47165;42.664;23.368;2022-09-13T00:01:07;3.92;;;2.30;;
61291;SDS011;47165;42.664;23.368;2022-09-13T00:03:33;2.90;;;2.35;;
61291;SDS011;47165;42.664;23.368;2022-09-13T00:06:06;5.10;;;2.35;;
61291;SDS011;47165;42.664;23.368;2022-09-13T00:08:36;2.80;;;2.35;;
61291;SDS011;47165;42.664;23.368;2022-09-13T00:11:02;3.83;;;2.35;;
61291;SDS011;47165;42.664;23.368;2022-09-13T00:13:28;3.05;;;1.67;;
61291;SDS011;47165;42.664;23.368;2022-09-13T00:15:53;4.43;;;2.22;;
61291;SDS011;47165;42.664;23.368;2022-09-13T00:18:19;5.43;;;2.45;;
61291;SDS011;47165;42.664;23.368;2022-09-13T00:20:44;3.75;;;3.30;;
61291;SDS011;47165;42.664;23.368;2022-09-13T00:23:10;3.13;;;2.53;;
61291;SDS011;47165;42.664;23.368;2022-09-13T00:25:35;4.07;;;2.40;;
61291;SDS011;47165;42.664;23.368;2022-09-13T00:28:02;3.70;;;2.50;;
61291;SDS011;47165;42.664;23.368;2022-09-13T00:30:29;2.72;;;2.05;;
61291;SDS011;47165;42.664;23.368;2022-09-13T00:32:54;3.42;;;2.33;;
61291;SDS011;47165;42.664;23.368;2022-09-13T00:35:20;3.00;;;2.45;;
61291;SDS011;47165;42.664;23.368;2022-09-13T00:37:45;3.35;;;2.42;;
61291;SDS011;47165;42.664;23.368;2022-09-13T00:40:11;2.88;;;2.17;;
61291;SDS011;47165;42.664;23.368;2022-09-13T00:42:36;2.63;;;2.03;;
61291;SDS011;47165;42.664;23.368;2022-09-13T00:47:37;2.72;;;1.63;;
61291;SDS011;47165;42.664;23.368;2022-09-13T00:50:13;3.47;;;1.90;;
61291;SDS011;47165;42.664;23.368;2022-09-13T00:52:48;6.05;;;2.55;;
61291;SDS011;47165;42.664;23.368;2022-09-13T00:55:20;3.55;;;2.22;;
61291;SDS011;47165;42.664;23.368;2022-09-13T00:57:49;3.10;;;2.30;;
61291;SDS011;47165;42.664;23.368;2022-09-13T01:00:18;3.70;;;1.90;;
61291;SDS011;47165;42.664;23.368;2022-09-13T01:02:51;3.60;;;2.53;;
61291;SDS011;47165;42.664;23.368;2022-09-13T01:05:24;3.28;;;2.00;;
61291;SDS011;47165;42.664;23.368;2022-09-13T01:07:54;5.22;;;2.95;;
61291;SDS011;47165;42.664;23.368;2022-09-13T01:10:21;3.70;;;2.28;;
61291;SDS011;47165;42.664;23.368;2022-09-13T01:12:54;4.18;;;1.90;;
61291;SDS011;47165;42.664;23.368;2022-09-13T01:15:26;5.32;;;2.97;;
61291;SDS011;47165;42.664;23.368;2022-09-13T01:17:51;2.75;;;1.83;;
61291;SDS011;47165;42.664;23.368;2022-09-13T01:20:18;3.08;;;2.17;;
61291;SDS011;47165;42.664;23.368;2022-09-13T01:33:37;5.40;;;2.50;;
61291;SDS011;47165;42.664;23.368;2022-09-13T01:38:52;3.03;;;2.25;;
61291;SDS011;47165;42.664;23.368;2022-09-13T01:41:31;3.55;;;2.05;;
61291;SDS011;47165;42.664;23.368;2022-09-13T01:44:06;3.85;;;2.38;;
61291;SDS011;47165;42.664;23.368;2022-09-13T02:00:43;4.68;;;2.38;;
61291;SDS011;47165;42.664;23.368;2022-09-13T02:03:26;2.85;;;1.90;;
61291;SDS011;47165;42.664;23.368;2022-09-13T02:05:56;2.40;;;1.95;;
61291;SDS011;47165;42.664;23.368;2022-09-13T02:11:18;4.45;;;1.95;;
61291;SDS011;47165;42.664;23.368;2022-09-13T02:13:51;2.35;;;2.00;;
61291;SDS011;47165;42.664;23.368;2022-09-13T02:16:25;3.28;;;2.40;;
61291;SDS011;47165;42.664;23.368;2022-09-13T02:18:58;3.42;;;2.30;;
61291;SDS011;47165;42.664;23.368;2022-09-13T02:21:31;4.20;;;2.28;;
61291;SDS011;47165;42.664;23.368;2022-09-13T02:26:32;2.33;;;2.13;;
61291;SDS011;47165;42.664;23.368;2022-09-13T02:29:01;3.88;;;2.67;;
61291;SDS011;47165;42.664;23.368;2022-09-13T02:31:36;2.88;;;2.15;;
61291;SDS011;47165;42.664;23.368;2022-09-13T02:34:24;3.80;;;2.60;;
61291;SDS011;47165;42.664;23.368;2022-09-13T02:36:54;3.45;;;2.22;;
61291;SDS011;47165;42.664;23.368;2022-09-13T02:39:22;3.85;;;2.70;;
61291;SDS011;47165;42.664;23.368;2022-09-13T02:42:06;5.45;;;3.17;;
61291;SDS011;47165;42.664;23.368;2022-09-13T02:44:42;4.28;;;2.47;;
61291;SDS011;47165;42.664;23.368;2022-09-13T02:50:01;3.80;;;2.47;;
61291;SDS011;47165;42.664;23.368;2022-09-13T03:00:43;3.50;;;2.38;;
61291;SDS011;47165;42.664;23.368;2022-09-13T03:03:11;3.63;;;2.45;;
61291;SDS011;47165;42.664;23.368;2022-09-13T03:05:39;3.55;;;2.55;;
61291;SDS011;47165;42.664;23.368;2022-09-13T03:08:06;3.47;;;2.53;;
61291;SDS011;47165;42.664;23.368;2022-09-13T03:13:34;2.92;;;2.30;;
61291;SDS011;47165;42.664;23.368;2022-09-13T03:38:04;2.85;;;2.20;;
61291;SDS011;47165;42.664;23.368;2022-09-13T03:40:40;3.63;;;2.70;;
61291;SDS011;47165;42.664;23.368;2022-09-13T03:43:12;2.75;;;2.33;;
61291;SDS011;47165;42.664;23.368;2022-09-13T03:45:43;6.65;;;2.63;;
61291;SDS011;47165;42.664;23.368;2022-09-13T03:48:12;3.08;;;2.15;;
61291;SDS011;47165;42.664;23.368;2022-09-13T03:50:40;3.53;;;2.30;;
61291;SDS011;47165;42.664;23.368;2022-09-13T03:53:08;2.15;;;1.67;;
61291;SDS011;47165;42.664;23.368;2022-09-13T03:55:37;3.10;;;2.10;;
61291;SDS011;47165;42.664;23.368;2022-09-13T03:58:06;3.85;;;2.58;;
61291;SDS011;47165;42.664;23.368;2022-09-13T04:00:34;3.85;;;2.50;;
61291;SDS011;47165;42.664;23.368;2022-09-13T04:02:59;5.25;;;3.08;;
61291;SDS011;47165;42.664;23.368;2022-09-13T04:05:25;3.05;;;2.28;;
61291;SDS011;47165;42.664;23.368;2022-09-13T04:07:51;2.60;;;2.03;;
61291;SDS011;47165;42.664;23.368;2022-09-13T04:10:16;5.82;;;2.63;;
61291;SDS011;47165;42.664;23.368;2022-09-13T04:12:41;4.00;;;2.72;;
61291;SDS011;47165;42.664;23.368;2022-09-13T04:15:07;2.30;;;1.88;;
61291;SDS011;47165;42.664;23.368;2022-09-13T04:17:34;2.92;;;2.20;;
61291;SDS011;47165;42.664;23.368;2022-09-13T04:20:00;3.15;;;2.40;;
61291;SDS011;47165;42.664;23.368;2022-09-13T04:22:25;4.55;;;2.30;;
61291;SDS011;47165;42.664;23.368;2022-09-13T04:24:51;4.82;;;2.58;;
61291;SDS011;47165;42.664;23.368;2022-09-13T04:27:16;4.85;;;2.95;;
61291;SDS011;47165;42.664;23.368;2022-09-13T04:29:42;4.40;;;3.35;;
61291;SDS011;47165;42.664;23.368;2022-09-13T04:32:08;2.83;;;2.38;;
61291;SDS011;47165;42.664;23.368;2022-09-13T04:34:34;4.35;;;2.60;;
61291;SDS011;47165;42.664;23.368;2022-09-13T04:36:59;4.05;;;2.80;;
61291;SDS011;47165;42.664;23.368;2022-09-13T04:39:25;2.90;;;2.40;;
61291;SDS011;47165;42.664;23.368;2022-09-13T04:41:51;6.00;;;2.72;;
61291;SDS011;47165;42.664;23.368;2022-09-13T04:44:18;3.97;;;2.40;;
61291;SDS011;47165;42.664;23.368;2022-09-13T04:46:46;4.03;;;2.42;;
61291;SDS011;47165;42.664;23.368;2022-09-13T04:49:13;4.30;;;2.95;;
61291;SDS011;47165;42.664;23.368;2022-09-13T04:51:39;4.57;;;2.88;;
61291;SDS011;47165;42.664;23.368;2022-09-13T04:54:05;3.97;;;2.33;;
61291;SDS011;47165;42.664;23.368;2022-09-13T04:56:31;3.60;;;2.65;;
61291;SDS011;47165;42.664;23.368;2022-09-13T04:58:56;6.43;;;2.63;;
61291;SDS011;47165;42.664;23.368;2022-09-13T05:01:22;5.88;;;2.58;;
61291;SDS011;47165;42.664;23.368;2022-09-13T05:03:49;4.82;;;2.42;;
61291;SDS011;47165;42.664;23.368;2022-09-13T05:06:18;2.67;;;2.15;;
61291;SDS011;47165;42.664;23.368;2022-09-13T05:08:48;8.07;;;3.03;;
61291;SDS011;47165;42.664;23.368;2022-09-13T05:11:19;4.18;;;2.88;;
61291;SDS011;47165;42.664;23.368;2022-09-13T05:13:50;5.75;;;2.83;;
61291;SDS011;47165;42.664;23.368;2022-09-13T05:16:17;3.85;;;2.70;;
61291;SDS011;47165;42.664;23.368;2022-09-13T05:18:42;3.58;;;2.15;;
61291;SDS011;47165;42.664;23.368;2022-09-13T05:21:08;3.35;;;2.10;;
61291;SDS011;47165;42.664;23.368;2022-09-13T05:23:33;3.80;;;2.40;;
61291;SDS011;47165;42.664;23.368;2022-09-13T05:26:00;4.75;;;2.65;;
61291;SDS011;47165;42.664;23.368;2022-09-13T05:28:28;4.70;;;2.75;;
61291;SDS011;47165;42.664;23.368;2022-09-13T05:30:55;3.20;;;2.20;;
61291;SDS011;47165;42.664;23.368;2022-09-13T05:33:21;3.15;;;2.38;;
61291;SDS011;47165;42.664;23.368;2022-09-13T05:35:47;5.10;;;2.22;;
61291;SDS011;47165;42.664;23.368;2022-09-13T05:38:14;3.63;;;2.50;;
61291;SDS011;47165;42.664;23.368;2022-09-13T05:40:39;3.55;;;2.47;;
61291;SDS011;47165;42.664;23.368;2022-09-13T05:43:04;3.65;;;2.17;;
61291;SDS011;47165;42.664;23.368;2022-09-13T05:45:30;2.53;;;2.20;;
61291;SDS011;47165;42.664;23.368;2022-09-13T05:47:57;4.90;;;1.92;;
61291;SDS011;47165;42.664;23.368;2022-09-13T05:50:22;4.60;;;2.05;;
61291;SDS011;47165;42.664;23.368;2022-09-13T05:52:54;3.13;;;2.45;;
61291;SDS011;47165;42.664;23.368;2022-09-13T05:55:20;3.58;;;2.70;;
61291;SDS011;47165;42.664;23.368;2022-09-13T05:57:47;4.32;;;2.15;;
61291;SDS011;47165;42.664;23.368;2022-09-13T06:00:14;3.75;;;1.83;;
61291;SDS011;47165;42.664;23.368;2022-09-13T06:02:40;3.42;;;2.25;;
61291;SDS011;47165;42.664;23.368;2022-09-13T06:05:06;3.22;;;2.20;;
61291;SDS011;47165;42.664;23.368;2022-09-13T06:07:34;4.15;;;1.98;;
61291;SDS011;47165;42.664;23.368;2022-09-13T06:10:00;2.55;;;1.90;;
61291;SDS011;47165;42.664;23.368;2022-09-13T06:12:26;2.20;;;1.70;;
61291;SDS011;47165;42.664;23.368;2022-09-13T06:14:51;2.13;;;1.70;;
61291;SDS011;47165;42.664;23.368;2022-09-13T06:17:17;3.05;;;2.22;;
61291;SDS011;47165;42.664;23.368;2022-09-13T06:19:42;3.50;;;2.28;;
61291;SDS011;47165;42.664;23.368;2022-09-13T06:22:08;3.00;;;2.25;;
61291;SDS011;47165;42.664;23.368;2022-09-13T06:24:34;2.75;;;1.95;;
61291;SDS011;47165;42.664;23.368;2022-09-13T06:27:01;5.55;;;2.08;;
61291;SDS011;47165;42.664;23.368;2022-09-13T06:29:26;2.30;;;1.58;;
61291;SDS011;47165;42.664;23.368;2022-09-13T06:31:52;4.63;;;2.05;;
61291;SDS011;47165;42.664;23.368;2022-09-13T06:34:17;3.22;;;2.10;;
61291;SDS011;47165;42.664;23.368;2022-09-13T06:36:43;4.00;;;2.33;;
61291;SDS011;47165;42.664;23.368;2022-09-13T06:39:08;2.55;;;1.80;;
61291;SDS011;47165;42.664;23.368;2022-09-13T06:41:34;3.25;;;2.10;;
61291;SDS011;47165;42.664;23.368;2022-09-13T06:44:00;3.50;;;2.20;;
61291;SDS011;47165;42.664;23.368;2022-09-13T06:46:27;4.45;;;2.50;;
61291;SDS011;47165;42.664;23.368;2022-09-13T06:48:54;3.53;;;2.10;;
61291;SDS011;47165;42.664;23.368;2022-09-13T06:51:23;3.47;;;1.95;;
61291;SDS011;47165;42.664;23.368;2022-09-13T06:53:49;3.83;;;2.35;;
61291;SDS011;47165;42.664;23.368;2022-09-13T06:58:45;2.78;;;1.70;;
61291;SDS011;47165;42.664;23.368;2022-09-13T07:01:16;3.90;;;2.22;;
61291;SDS011;47165;42.664;23.368;2022-09-13T07:03:48;5.13;;;2.47;;
61291;SDS011;47165;42.664;23.368;2022-09-13T07:06:16;3.53;;;2.10;;
61291;SDS011;47165;42.664;23.368;2022-09-13T07:08:46;2.80;;;1.85;;
61291;SDS011;47165;42.664;23.368;2022-09-13T07:11:13;5.75;;;2.53;;
61291;SDS011;47165;42.664;23.368;2022-09-13T07:13:40;2.65;;;2.00;;
61291;SDS011;47165;42.664;23.368;2022-09-13T07:16:07;3.05;;;1.88;;
61291;SDS011;47165;42.664;23.368;2022-09-13T07:18:34;3.15;;;1.80;;
61291;SDS011;47165;42.664;23.368;2022-09-13T07:21:04;3.15;;;2.08;;
61291;SDS011;47165;42.664;23.368;2022-09-13T07:23:32;3.25;;;1.75;;
61291;SDS011;47165;42.664;23.368;2022-09-13T07:25:59;5.38;;;1.95;;
61291;SDS011;47165;42.664;23.368;2022-09-13T07:28:48;2.97;;;2.10;;
61291;SDS011;47165;42.664;23.368;2022-09-13T07:31:20;2.35;;;2.15;;
61291;SDS011;47165;42.664;23.368;2022-09-13T07:33:51;2.58;;;2.22;;
61291;SDS011;47165;42.664;23.368;2022-09-13T07:36:18;4.57;;;2.40;;
61291;SDS011;47165;42.664;23.368;2022-09-13T07:38:44;2.47;;;1.88;;
61291;SDS011;47165;42.664;23.368;2022-09-13T07:41:42;4.63;;;2.33;;
61291;SDS011;47165;42.664;23.368;2022-09-13T07:44:01;4.20;;;2.50;;
61291;SDS011;47165;42.664;23.368;2022-09-13T07:46:29;4.07;;;1.95;;
61291;SDS011;47165;42.664;23.368;2022-09-13T07:48:56;4.45;;;2.17;;
61291;SDS011;47165;42.664;23.368;2022-09-13T07:51:23;3.17;;;2.08;;
61291;SDS011;47165;42.664;23.368;2022-09-13T07:53:54;3.70;;;2.47;;
61291;SDS011;47165;42.664;23.368;2022-09-13T07:56:22;3.70;;;2.00;;
61291;SDS011;47165;42.664;23.368;2022-09-13T07:58:59;2.60;;;1.70;;
61291;SDS011;47165;42.664;23.368;2022-09-13T08:01:27;2.33;;;1.75;;
61291;SDS011;47165;42.664;23.368;2022-09-13T08:06:20;3.63;;;1.65;;
61291;SDS011;47165;42.664;23.368;2022-09-13T08:08:46;2.45;;;1.65;;
61291;SDS011;47165;42.664;23.368;2022-09-13T08:11:16;2.05;;;1.83;;
61291;SDS011;47165;42.664;23.368;2022-09-13T08:13:44;3.47;;;1.45;;
61291;SDS011;47165;42.664;23.368;2022-09-13T08:16:13;2.38;;;1.42;;
61291;SDS011;47165;42.664;23.368;2022-09-13T08:18:43;5.05;;;1.80;;
61291;SDS011;47165;42.664;23.368;2022-09-13T08:21:09;3.05;;;1.88;;
61291;SDS011;47165;42.664;23.368;2022-09-13T08:23:35;2.22;;;1.67;;
61291;SDS011;47165;42.664;23.368;2022-09-13T08:26:01;4.82;;;1.70;;
61291;SDS011;47165;42.664;23.368;2022-09-13T08:28:27;3.55;;;1.55;;
61291;SDS011;47165;42.664;23.368;2022-09-13T08:30:53;3.35;;;2.10;;
61291;SDS011;47165;42.664;23.368;2022-09-13T08:33:19;3.72;;;1.52;;
61291;SDS011;47165;42.664;23.368;2022-09-13T08:35:51;1.95;;;1.42;;
61291;SDS011;47165;42.664;23.368;2022-09-13T08:38:17;2.15;;;1.48;;
61291;SDS011;47165;42.664;23.368;2022-09-13T08:40:44;1.45;;;1.35;;
61291;SDS011;47165;42.664;23.368;2022-09-13T08:46:01;2.17;;;1.65;;
61291;SDS011;47165;42.664;23.368;2022-09-13T08:48:38;2.83;;;1.48;;
61291;SDS011;47165;42.664;23.368;2022-09-13T08:51:08;2.33;;;1.50;;
61291;SDS011;47165;42.664;23.368;2022-09-13T08:53:59;2.55;;;1.63;;
61291;SDS011;47165;42.664;23.368;2022-09-13T08:56:31;2.55;;;1.50;;
61291;SDS011;47165;42.664;23.368;2022-09-13T09:05:05;2.03;;;1.35;;
61291;SDS011;47165;42.664;23.368;2022-09-13T09:07:57;9.13;;;1.45;;
61291;SDS011;47165;42.664;23.368;2022-09-13T09:10:28;1.90;;;1.50;;
61291;SDS011;47165;42.664;23.368;2022-09-13T09:12:55;3.15;;;1.35;;
61291;SDS011;47165;42.664;23.368;2022-09-13T09:15:32;1.77;;;1.50;;
61291;SDS011;47165;42.664;23.368;2022-09-13T09:20:51;1.55;;;1.10;;
61291;SDS011;47165;42.664;23.368;2022-09-13T09:26:18;3.30;;;1.10;;
61291;SDS011;47165;42.664;23.368;2022-09-13T09:29:00;3.20;;;1.23;;
61291;SDS011;47165;42.664;23.368;2022-09-13T09:36:44;2.50;;;1.17;;
61291;SDS011;47165;42.664;23.368;2022-09-13T09:39:23;1.77;;;1.10;;
61291;SDS011;47165;42.664;23.368;2022-09-13T09:41:53;1.15;;;0.95;;
61291;SDS011;47165;42.664;23.368;2022-09-13T09:44:28;2.13;;;1.23;;
61291;SDS011;47165;42.664;23.368;2022-09-13T09:55:42;4.10;;;1.23;;
61291;SDS011;47165;42.664;23.368;2022-09-13T09:58:11;1.30;;;1.20;;
61291;SDS011;47165;42.664;23.368;2022-09-13T10:00:56;3.53;;;1.55;;
61291;SDS011;47165;42.664;23.368;2022-09-13T10:03:23;2.05;;;1.17;;
61291;SDS011;47165;42.664;23.368;2022-09-13T10:06:02;2.35;;;1.33;;
61291;SDS011;47165;42.664;23.368;2022-09-13T10:08:30;2.00;;;1.42;;
61291;SDS011;47165;42.664;23.368;2022-09-13T10:10:58;2.67;;;1.65;;
61291;SDS011;47165;42.664;23.368;2022-09-13T10:13:26;3.80;;;1.02;;
61291;SDS011;47165;42.664;23.368;2022-09-13T10:15:53;1.95;;;1.58;;
61291;SDS011;47165;42.664;23.368;2022-09-13T10:18:21;3.38;;;1.65;;
61291;SDS011;47165;42.664;23.368;2022-09-13T10:23:25;1.77;;;1.60;;
61291;SDS011;47165;42.664;23.368;2022-09-13T10:25:59;1.42;;;1.33;;
61291;SDS011;47165;42.664;23.368;2022-09-13T10:28:26;3.38;;;1.35;;
61291;SDS011;47165;42.664;23.368;2022-09-13T10:30:55;2.67;;;1.80;;
61291;SDS011;47165;42.664;23.368;2022-09-13T10:33:26;1.67;;;1.17;;
61291;SDS011;47165;42.664;23.368;2022-09-13T10:36:02;2.33;;;1.70;;
61291;SDS011;47165;42.664;23.368;2022-09-13T10:38:32;1.63;;;1.40;;
61291;SDS011;47165;42.664;23.368;2022-09-13T10:41:02;1.88;;;1.38;;
61291;SDS011;47165;42.664;23.368;2022-09-13T10:43:33;2.35;;;1.75;;
61291;SDS011;47165;42.664;23.368;2022-09-13T10:45:59;1.83;;;1.35;;
61291;SDS011;47165;42.664;23.368;2022-09-13T10:48:29;2.58;;;1.80;;
61291;SDS011;47165;42.664;23.368;2022-09-13T10:51:00;1.35;;;1.23;;
61291;SDS011;47165;42.664;23.368;2022-09-13T10:55:58;2.90;;;1.55;;
61291;SDS011;47165;42.664;23.368;2022-09-13T10:58:24;3.03;;;1.88;;
61291;SDS011;47165;42.664;23.368;2022-09-13T11:11:40;2.30;;;1.60;;
61291;SDS011;47165;42.664;23.368;2022-09-13T11:20:52;1.80;;;1.42;;
61291;SDS011;47165;42.664;23.368;2022-09-13T11:52:37;1.30;;;1.02;;
61291;SDS011;47165;42.664;23.368;2022-09-13T11:58:27;1.35;;;1.13;;
61291;SDS011;47165;42.664;23.368;2022-09-13T12:01:01;1.63;;;1.02;;
61291;SDS011;47165;42.664;23.368;2022-09-13T12:06:18;1.90;;;1.27;;
61291;SDS011;47165;42.664;23.368;2022-09-13T12:08:51;1.67;;;1.13;;
61291;SDS011;47165;42.664;23.368;2022-09-13T12:11:24;2.20;;;1.35;;
61291;SDS011;47165;42.664;23.368;2022-09-13T12:13:56;2.10;;;1.02;;
61291;SDS011;47165;42.664;23.368;2022-09-13T12:16:30;3.97;;;1.30;;
61291;SDS011;47165;42.664;23.368;2022-09-13T12:19:00;2.33;;;1.27;;
61291;SDS011;47165;42.664;23.368;2022-09-13T12:21:40;1.30;;;1.15;;
61291;SDS011;47165;42.664;23.368;2022-09-13T12:24:17;1.33;;;1.05;;
61291;SDS011;47165;42.664;23.368;2022-09-13T12:26:52;4.00;;;1.25;;
61291;SDS011;47165;42.664;23.368;2022-09-13T12:29:35;1.98;;;1.00;;
61291;SDS011;47165;42.664;23.368;2022-09-13T12:32:13;1.58;;;1.20;;
61291;SDS011;47165;42.664;23.368;2022-09-13T12:40:39;0.90;;;0.90;;
61291;SDS011;47165;42.664;23.368;2022-09-13T13:00:20;1.85;;;1.00;;
61291;SDS011;47165;42.664;23.368;2022-09-13T13:11:03;1.73;;;1.05;;
61291;SDS011;47165;42.664;23.368;2022-09-13T13:13:31;1.00;;;0.82;;
61291;SDS011;47165;42.664;23.368;2022-09-13T13:18:29;1.10;;;1.00;;
61291;SDS011;47165;42.664;23.368;2022-09-13T13:21:27;4.43;;;1.10;;
61291;SDS011;47165;42.664;23.368;2022-09-13T13:34:25;2.10;;;1.30;;
61291;SDS011;47165;42.664;23.368;2022-09-13T13:37:39;1.00;;;0.90;;
61291;SDS011;47165;42.664;23.368;2022-09-13T13:40:09;1.55;;;1.40;;
61291;SDS011;47165;42.664;23.368;2022-09-13T13:42:44;2.08;;;1.23;;
61291;SDS011;47165;42.664;23.368;2022-09-13T13:45:14;2.65;;;1.90;;
61291;SDS011;47165;42.664;23.368;2022-09-13T13:47:55;4.72;;;1.92;;
61291;SDS011;47165;42.664;23.368;2022-09-13T13:50:31;1.60;;;1.20;;
61291;SDS011;47165;42.664;23.368;2022-09-13T13:52:58;1.40;;;1.30;;
61291;SDS011;47165;42.664;23.368;2022-09-13T13:55:44;1.67;;;1.27;;
61291;SDS011;47165;42.664;23.368;2022-09-13T13:58:23;2.00;;;1.17;;
61291;SDS011;47165;42.664;23.368;2022-09-13T14:00:53;2.65;;;1.40;;
61291;SDS011;47165;42.664;23.368;2022-09-13T14:03:26;2.20;;;1.25;;
61291;SDS011;47165;42.664;23.368;2022-09-13T14:19:45;1.98;;;1.30;;
61291;SDS011;47165;42.664;23.368;2022-09-13T14:22:19;2.85;;;1.25;;
61291;SDS011;47165;42.664;23.368;2022-09-13T14:24:46;2.38;;;1.55;;
61291;SDS011;47165;42.664;23.368;2022-09-13T14:27:24;2.13;;;1.10;;
61291;SDS011;47165;42.664;23.368;2022-09-13T14:29:52;1.90;;;1.40;;
61291;SDS011;47165;42.664;23.368;2022-09-13T14:32:20;1.30;;;1.20;;
61291;SDS011;47165;42.664;23.368;2022-09-13T14:35:02;2.20;;;1.50;;
61291;SDS011;47165;42.664;23.368;2022-09-13T14:37:31;2.03;;;1.40;;
61291;SDS011;47165;42.664;23.368;2022-09-13T14:40:16;2.35;;;1.40;;
61291;SDS011;47165;42.664;23.368;2022-09-13T14:42:45;2.57;;;1.80;;
61291;SDS011;47165;42.664;23.368;2022-09-13T14:45:14;4.30;;;1.20;;
61291;SDS011;47165;42.664;23.368;2022-09-13T14:47:51;1.60;;;1.50;;
61291;SDS011;47165;42.664;23.368;2022-09-13T14:50:19;2.10;;;1.58;;
61291;SDS011;47165;42.664;23.368;2022-09-13T14:52:51;2.72;;;1.90;;
61291;SDS011;47165;42.664;23.368;2022-09-13T14:55:22;1.58;;;1.48;;
61291;SDS011;47165;42.664;23.368;2022-09-13T14:57:59;1.40;;;1.30;;
61291;SDS011;47165;42.664;23.368;2022-09-13T15:00:32;1.45;;;1.33;;
61291;SDS011;47165;42.664;23.368;2022-09-13T15:03:11;1.85;;;1.20;;
61291;SDS011;47165;42.664;23.368;2022-09-13T15:05:39;1.58;;;1.33;;
61291;SDS011;47165;42.664;23.368;2022-09-13T15:10:59;3.03;;;1.60;;
61291;SDS011;47165;42.664;23.368;2022-09-13T15:13:26;2.05;;;1.60;;
61291;SDS011;47165;42.664;23.368;2022-09-13T15:15:52;1.85;;;1.63;;
61291;SDS011;47165;42.664;23.368;2022-09-13T15:18:22;1.52;;;1.23;;
61291;SDS011;47165;42.664;23.368;2022-09-13T15:25:53;1.80;;;1.70;;
61291;SDS011;47165;42.664;23.368;2022-09-13T15:28:24;1.70;;;1.60;;
61291;SDS011;47165;42.664;23.368;2022-09-13T15:30:53;1.58;;;1.48;;
61291;SDS011;47165;42.664;23.368;2022-09-13T15:33:29;2.08;;;1.70;;
61291;SDS011;47165;42.664;23.368;2022-09-13T15:39:01;1.73;;;1.35;;
61291;SDS011;47165;42.664;23.368;2022-09-13T15:41:29;2.70;;;2.00;;
61291;SDS011;47165;42.664;23.368;2022-09-13T15:43:57;1.50;;;1.40;;
61291;SDS011;47165;42.664;23.368;2022-09-13T15:46:23;1.90;;;1.75;;
61291;SDS011;47165;42.664;23.368;2022-09-13T15:48:50;2.15;;;1.58;;
61291;SDS011;47165;42.664;23.368;2022-09-13T15:51:18;2.05;;;1.70;;
61291;SDS011;47165;42.664;23.368;2022-09-13T15:53:44;2.10;;;1.67;;
61291;SDS011;47165;42.664;23.368;2022-09-13T15:56:15;3.65;;;1.52;;
61291;SDS011;47165;42.664;23.368;2022-09-13T15:59:04;2.17;;;1.60;;
61291;SDS011;47165;42.664;23.368;2022-09-13T16:01:30;2.60;;;1.98;;
61291;SDS011;47165;42.664;23.368;2022-09-13T16:03:55;4.70;;;1.70;;
61291;SDS011;47165;42.664;23.368;2022-09-13T16:06:21;2.10;;;1.80;;
61291;SDS011;47165;42.664;23.368;2022-09-13T16:08:47;2.55;;;2.00;;
61291;SDS011;47165;42.664;23.368;2022-09-13T16:11:12;2.55;;;1.95;;
61291;SDS011;47165;42.664;23.368;2022-09-13T16:13:37;2.88;;;2.22;;
61291;SDS011;47165;42.664;23.368;2022-09-13T16:16:03;2.55;;;1.80;;
61291;SDS011;47165;42.664;23.368;2022-09-13T16:18:29;3.58;;;2.15;;
61291;SDS011;47165;42.664;23.368;2022-09-13T16:20:55;5.68;;;3.60;;
61291;SDS011;47165;42.664;23.368;2022-09-13T16:23:20;2.33;;;1.95;;
61291;SDS011;47165;42.664;23.368;2022-09-13T16:25:45;3.17;;;2.40;;
61291;SDS011;47165;42.664;23.368;2022-09-13T16:28:19;2.40;;;2.13;;
61291;SDS011;47165;42.664;23.368;2022-09-13T16:30:45;2.65;;;2.28;;
61291;SDS011;47165;42.664;23.368;2022-09-13T16:33:11;2.25;;;1.90;;
61291;SDS011;47165;42.664;23.368;2022-09-13T16:35:36;2.67;;;2.13;;
61291;SDS011;47165;42.664;23.368;2022-09-13T16:38:02;4.53;;;2.10;;
61291;SDS011;47165;42.664;23.368;2022-09-13T16:40:27;2.78;;;2.22;;
61291;SDS011;47165;42.664;23.368;2022-09-13T16:42:53;2.47;;;2.10;;
61291;SDS011;47165;42.664;23.368;2022-09-13T16:45:19;2.17;;;1.83;;
61291;SDS011;47165;42.664;23.368;2022-09-13T16:47:44;2.88;;;2.30;;
61291;SDS011;47165;42.664;23.368;2022-09-13T16:50:10;2.60;;;2.28;;
61291;SDS011;47165;42.664;23.368;2022-09-13T16:52:39;4.30;;;2.95;;
61291;SDS011;47165;42.664;23.368;2022-09-13T16:55:05;2.55;;;2.00;;
61291;SDS011;47165;42.664;23.368;2022-09-13T16:57:33;3.00;;;2.35;;
61291;SDS011;47165;42.664;23.368;2022-09-13T16:59:59;4.00;;;2.20;;
61291;SDS011;47165;42.664;23.368;2022-09-13T17:02:25;3.33;;;2.17;;
61291;SDS011;47165;42.664;23.368;2022-09-13T17:04:52;2.50;;;2.10;;
61291;SDS011;47165;42.664;23.368;2022-09-13T17:07:17;3.50;;;2.50;;
61291;SDS011;47165;42.664;23.368;2022-09-13T17:09:43;2.90;;;2.25;;
61291;SDS011;47165;42.664;23.368;2022-09-13T17:12:10;3.47;;;2.65;;
61291;SDS011;47165;42.664;23.368;2022-09-13T17:14:38;3.90;;;2.97;;
61291;SDS011;47165;42.664;23.368;2022-09-13T17:17:06;3.13;;;2.28;;
61291;SDS011;47165;42.664;23.368;2022-09-13T17:19:33;3.13;;;2.50;;
61291;SDS011;47165;42.664;23.368;2022-09-13T17:21:59;2.55;;;2.35;;
61291;SDS011;47165;42.664;23.368;2022-09-13T17:24:27;3.50;;;3.13;;
61291;SDS011;47165;42.664;23.368;2022-09-13T17:26:54;4.07;;;2.83;;
61291;SDS011;47165;42.664;23.368;2022-09-13T17:29:20;2.92;;;2.50;;
61291;SDS011;47165;42.664;23.368;2022-09-13T17:31:46;5.20;;;2.80;;
61291;SDS011;47165;42.664;23.368;2022-09-13T17:34:11;3.17;;;2.65;;
61291;SDS011;47165;42.664;23.368;2022-09-13T17:36:38;3.63;;;2.25;;
61291;SDS011;47165;42.664;23.368;2022-09-13T17:39:04;3.35;;;2.40;;
61291;SDS011;47165;42.664;23.368;2022-09-13T17:41:30;4.53;;;3.28;;
61291;SDS011;47165;42.664;23.368;2022-09-13T17:43:56;3.35;;;2.90;;
61291;SDS011;47165;42.664;23.368;2022-09-13T17:46:22;3.97;;;3.35;;
61291;SDS011;47165;42.664;23.368;2022-09-13T17:48:52;3.35;;;2.60;;
61291;SDS011;47165;42.664;23.368;2022-09-13T17:51:20;3.20;;;2.63;;
61291;SDS011;47165;42.664;23.368;2022-09-13T17:53:53;3.97;;;3.00;;
61291;SDS011;47165;42.664;23.368;2022-09-13T17:56:23;3.08;;;2.78;;
61291;SDS011;47165;42.664;23.368;2022-09-13T17:59:19;5.25;;;2.67;;
61291;SDS011;47165;42.664;23.368;2022-09-13T18:01:46;3.00;;;2.70;;
61291;SDS011;47165;42.664;23.368;2022-09-13T18:04:15;5.55;;;2.65;;
61291;SDS011;47165;42.664;23.368;2022-09-13T18:06:41;4.25;;;2.70;;
61291;SDS011;47165;42.664;23.368;2022-09-13T18:09:08;3.88;;;2.67;;
61291;SDS011;47165;42.664;23.368;2022-09-13T18:11:35;3.85;;;2.63;;
61291;SDS011;47165;42.664;23.368;2022-09-13T18:14:01;3.13;;;2.28;;
61291;SDS011;47165;42.664;23.368;2022-09-13T18:16:27;4.38;;;3.75;;
61291;SDS011;47165;42.664;23.368;2022-09-13T18:18:53;4.97;;;2.63;;
61291;SDS011;47165;42.664;23.368;2022-09-13T18:21:21;4.93;;;3.03;;
61291;SDS011;47165;42.664;23.368;2022-09-13T18:23:49;3.88;;;2.78;;
61291;SDS011;47165;42.664;23.368;2022-09-13T18:26:17;2.95;;;2.65;;
61291;SDS011;47165;42.664;23.368;2022-09-13T18:28:44;4.20;;;2.78;;
61291;SDS011;47165;42.664;23.368;2022-09-13T18:31:15;4.28;;;2.45;;
61291;SDS011;47165;42.664;23.368;2022-09-13T18:33:41;4.55;;;3.00;;
61291;SDS011;47165;42.664;23.368;2022-09-13T18:36:12;3.70;;;2.83;;
61291;SDS011;47165;42.664;23.368;2022-09-13T18:38:42;3.13;;;2.65;;